Time;durP1;ratioP1;P1;durP2;ratioP2;P2;SDS_P1;SDS_P2;PMS_P1;PMS_P2;Temp;Humidity;BMP_temperature;BMP_pressure;BME280_temperature;BME280_humidity;BME280_pressure;Samples;Min_cycle;Max_cycle;Signal;HPM_P1;HPM_P2
2021/07/11 05:02:37;;;;;;;6.65;4.70;;;;;;;23.84;58.17;94722.88;5193282;23;20060;-72
2021/07/11 05:05:03;;;;;;;7.18;4.60;;;;;;;24.83;53.89;94715.47;5019367;28;20097;-71
2021/07/11 05:07:29;;;;;;;5.68;4.57;;;;;;;25.32;54.48;94722.88;5028445;28;20037;-71
2021/07/11 05:09:54;;;;;;;5.80;5.05;;;;;;;25.50;54.78;94720.47;5026584;28;20075;-73
2021/07/11 05:12:20;;;;;;;6.32;4.50;;;;;;;26.63;51.74;94719.72;5041587;28;20028;-72
2021/07/11 05:14:45;;;;;;;6.10;4.97;;;;;;;28.88;47.09;94716.78;5042094;28;20036;-73
2021/07/11 05:17:11;;;;;;;15.93;5.25;;;;;;;30.32;44.01;94721.66;5044175;28;20025;-73
2021/07/11 05:19:36;;;;;;;5.03;4.68;;;;;;;31.78;40.58;94736.16;5030987;28;20034;-72
2021/07/11 05:22:03;;;;;;;7.47;4.25;;;;;;;32.43;39.17;94722.00;5039261;28;20505;-72
2021/07/11 05:24:28;;;;;;;4.80;4.22;;;;;;;32.03;39.71;94725.84;5032163;28;20402;-72
2021/07/11 05:26:55;;;;;;;5.03;4.25;;;;;;;30.98;40.95;94733.63;5029838;28;20036;-72
2021/07/11 05:29:21;;;;;;;6.88;4.78;;;;;;;32.06;40.32;94722.56;5027020;28;20040;-72
2021/07/11 05:31:46;;;;;;;8.88;4.53;;;;;;;31.52;42.02;94737.13;5011175;28;20108;-72
2021/07/11 05:34:11;;;;;;;4.55;4.25;;;;;;;33.11;38.70;94725.88;5017860;28;20051;-73
2021/07/11 05:36:38;;;;;;;4.97;4.57;;;;;;;32.70;40.02;94724.44;5012064;28;20037;-73
2021/07/11 05:39:03;;;;;;;4.90;4.50;;;;;;;29.31;44.63;94727.31;5007540;28;20495;-73
2021/07/11 05:41:29;;;;;;;4.88;4.45;;;;;;;32.42;40.54;94720.44;5010446;28;20025;-72
2021/07/11 05:43:54;;;;;;;4.65;4.10;;;;;;;33.24;38.68;94719.53;5009271;28;20026;-72
2021/07/11 05:46:20;;;;;;;4.60;4.28;;;;;;;33.27;38.61;94721.56;5010159;28;20018;-73
2021/07/11 05:48:45;;;;;;;5.10;4.38;;;;;;;34.24;37.24;94717.97;5010247;28;20479;-73
2021/07/11 05:51:11;;;;;;;4.38;3.97;;;;;;;34.07;37.06;94717.25;5010499;28;20491;-73
2021/07/11 05:53:36;;;;;;;8.07;4.45;;;;;;;34.32;36.39;94713.66;5010567;28;20030;-73
2021/07/11 05:56:02;;;;;;;4.75;4.45;;;;;;;33.31;36.72;94720.63;5018985;28;20025;-73
2021/07/11 05:58:27;;;;;;;6.00;3.47;;;;;;;33.34;36.91;94719.19;5030666;28;20040;-72
2021/07/11 06:00:53;;;;;;;4.80;4.50;;;;;;;33.61;37.36;94724.22;5029048;28;20017;-72
2021/07/11 06:03:20;;;;;;;6.47;4.25;;;;;;;32.13;39.79;94720.22;5030089;28;20032;-72
2021/07/11 06:05:45;;;;;;;4.95;4.40;;;;;;;33.95;36.54;94725.19;5028564;28;20029;-72
2021/07/11 06:08:11;;;;;;;7.32;4.43;;;;;;;32.12;39.52;94722.09;5033066;28;20025;-72
2021/07/11 06:10:36;;;;;;;5.32;4.07;;;;;;;32.82;37.69;94721.13;5034342;28;20029;-73
2021/07/11 06:13:02;;;;;;;4.95;4.22;;;;;;;34.02;36.79;94723.59;5023187;28;20088;-72
2021/07/11 06:15:27;;;;;;;4.78;3.85;;;;;;;33.43;37.97;94721.88;5043300;28;20025;-72
2021/07/11 06:17:53;;;;;;;5.50;4.18;;;;;;;33.42;36.27;94718.41;5035782;28;20032;-73
2021/07/11 06:20:18;;;;;;;4.00;3.70;;;;;;;33.98;35.63;94722.66;5050168;28;20031;-72
2021/07/11 06:22:44;;;;;;;4.88;4.38;;;;;;;31.35;38.87;94733.22;5041800;28;20446;-72
2021/07/11 06:25:10;;;;;;;5.82;4.20;;;;;;;33.52;35.41;94720.75;5022602;28;20445;-72
2021/07/11 06:27:36;;;;;;;6.10;4.03;;;;;;;34.31;33.83;94730.91;5029383;28;20029;-72
2021/07/11 06:30:06;;;;;;;7.43;4.40;;;;;;;34.88;32.40;94723.88;5029405;28;20034;-73
2021/07/11 06:32:32;;;;;;;5.25;4.15;;;;;;;33.84;35.30;94720.16;5038135;28;20021;-73
2021/07/11 06:34:58;;;;;;;4.47;4.07;;;;;;;35.02;32.85;94725.50;5012174;28;20029;-73
2021/07/11 06:37:23;;;;;;;6.30;3.97;;;;;;;34.34;34.84;94716.78;5037093;28;20104;-72
2021/07/11 06:39:49;;;;;;;4.95;4.05;;;;;;;33.57;35.56;94715.19;5032553;28;20025;-73
2021/07/11 06:42:14;;;;;;;4.22;3.88;;;;;;;33.34;35.38;94708.44;5037089;28;20026;-73
2021/07/11 06:44:40;;;;;;;5.88;4.47;;;;;;;30.03;42.46;94713.16;5035326;28;20087;-74
2021/07/11 06:47:07;;;;;;;7.95;4.65;;;;;;;30.48;42.29;94705.28;5039748;28;20025;-73
2021/07/11 06:49:34;;;;;;;5.95;4.22;;;;;;;29.53;43.59;94706.09;5033950;28;20130;-73
2021/07/11 06:52:00;;;;;;;4.43;3.90;;;;;;;29.49;42.90;94710.44;5033376;28;20075;-73
2021/07/11 06:54:28;;;;;;;5.57;4.05;;;;;;;29.63;43.66;94709.38;5037399;28;20223;-73
2021/07/11 06:56:54;;;;;;;5.20;3.63;;;;;;;29.32;40.97;94708.34;5039698;28;20025;-73
2021/07/11 06:59:20;;;;;;;4.40;4.10;;;;;;;29.29;41.62;94707.03;5049960;28;20110;-73
2021/07/11 07:01:45;;;;;;;6.32;3.45;;;;;;;34.81;34.08;94699.38;5046496;28;20464;-73
2021/07/11 07:04:10;;;;;;;4.35;3.92;;;;;;;31.22;38.30;94706.50;5031648;28;20394;-73
2021/07/11 07:06:36;;;;;;;4.40;4.00;;;;;;;31.79;36.79;94708.25;5033703;28;20040;-72
2021/07/11 07:09:02;;;;;;;4.55;3.60;;;;;;;30.48;39.07;94703.41;5037049;28;20033;-72
2021/07/11 07:11:27;;;;;;;12.90;4.70;;;;;;;28.61;40.38;94700.63;5046211;28;20099;-73
2021/07/11 07:13:52;;;;;;;6.07;3.60;;;;;;;28.39;43.85;94703.06;5039023;28;20032;-73
2021/07/11 07:16:18;;;;;;;7.40;3.83;;;;;;;29.90;41.74;94703.28;5028967;28;20099;-72
2021/07/11 07:18:43;;;;;;;4.57;3.92;;;;;;;28.44;43.99;94705.69;5034126;28;20090;-72
2021/07/11 07:21:09;;;;;;;4.00;3.60;;;;;;;30.13;44.49;94712.16;5036079;28;20025;-72
2021/07/11 07:23:34;;;;;;;4.10;3.80;;;;;;;29.51;41.32;94701.03;5027154;28;20438;-72
2021/07/11 07:26:00;;;;;;;7.75;4.03;;;;;;;29.38;42.20;94701.03;5035673;28;20037;-73
2021/07/11 07:28:25;;;;;;;6.28;4.15;;;;;;;28.56;43.57;94701.50;5028689;28;20128;-73
2021/07/11 07:30:51;;;;;;;7.47;4.18;;;;;;;26.60;47.20;94699.81;5026255;28;20068;-72
2021/07/11 07:33:16;;;;;;;3.72;3.17;;;;;;;28.11;45.38;94710.13;5027341;28;20040;-73
2021/07/11 07:35:41;;;;;;;4.80;3.47;;;;;;;28.06;43.30;94702.97;5025399;28;20026;-73
2021/07/11 07:38:07;;;;;;;5.20;3.65;;;;;;;27.95;44.27;94695.38;5026953;28;20025;-73
2021/07/11 07:40:33;;;;;;;13.60;3.97;;;;;;;28.96;44.27;94710.00;5026028;28;20033;-73
2021/07/11 07:42:58;;;;;;;2.95;2.65;;;;;;;28.12;42.37;94709.84;5023688;28;20025;-73
2021/07/11 07:45:24;;;;;;;5.80;3.15;;;;;;;29.19;40.68;94712.53;5022137;28;20461;-73
2021/07/11 07:47:50;;;;;;;4.65;3.30;;;;;;;27.72;42.91;94713.75;5016995;28;20396;-76
2021/07/11 07:50:15;;;;;;;5.72;3.42;;;;;;;27.84;43.61;94710.66;5020063;28;20094;-75
2021/07/11 07:52:41;;;;;;;6.05;3.50;;;;;;;29.58;42.24;94714.81;5027005;28;20021;-74
2021/07/11 07:55:07;;;;;;;5.22;3.63;;;;;;;28.67;41.27;94718.19;5026906;28;20037;-76
2021/07/11 07:57:32;;;;;;;3.83;3.05;;;;;;;29.28;39.98;94707.34;4997864;28;20402;-75
2021/07/11 07:59:58;;;;;;;4.78;3.55;;;;;;;27.15;43.34;94713.75;5016390;28;20030;-73
2021/07/11 08:02:23;;;;;;;4.63;2.72;;;;;;;27.98;41.82;94692.94;5041346;28;20054;-77
2021/07/11 08:04:49;;;;;;;4.70;3.00;;;;;;;27.75;40.44;94709.72;5025630;28;20425;-77
2021/07/11 08:07:14;;;;;;;3.05;2.85;;;;;;;27.63;40.34;94698.69;5037005;28;20033;-77
2021/07/11 08:09:40;;;;;;;4.18;3.13;;;;;;;27.49;40.15;94698.56;5026301;28;20509;-71
2021/07/11 08:12:06;;;;;;;3.15;2.65;;;;;;;27.35;38.86;94705.59;5025763;28;20025;-74
2021/07/11 08:14:31;;;;;;;3.35;2.55;;;;;;;27.99;40.06;94705.19;5026278;28;20021;-76
2021/07/11 08:16:57;;;;;;;9.65;2.60;;;;;;;27.27;39.71;94697.41;5026031;28;20106;-74
2021/07/11 08:19:22;;;;;;;7.43;2.63;;;;;;;27.51;39.28;94708.94;5024462;28;20069;-75
2021/07/11 08:21:53;;;;;;;3.20;2.50;;;;;;;28.04;38.31;94704.31;5026595;28;20036;-74
2021/07/11 08:24:20;;;;;;;3.17;2.80;;;;;;;27.99;39.52;94696.41;5025559;28;20029;-75
2021/07/11 08:26:46;;;;;;;7.40;2.75;;;;;;;28.33;39.48;94701.56;5024564;28;20025;-74
2021/07/11 08:29:11;;;;;;;4.35;2.50;;;;;;;28.06;36.75;94694.22;5025541;28;20057;-77
2021/07/11 08:31:36;;;;;;;19.42;3.38;;;;;;;28.08;36.25;94700.03;5024863;28;20029;-73
2021/07/11 08:34:02;;;;;;;15.00;4.10;;;;;;;26.93;38.04;94694.81;5026501;28;20459;-74
2021/07/11 08:36:29;;;;;;;2.88;2.38;;;;;;;27.77;36.71;94696.13;5026412;28;20076;-75
2021/07/11 08:38:56;;;;;;;2.72;2.30;;;;;;;28.27;37.73;94692.84;5028277;28;20060;-73
2021/07/11 08:41:21;;;;;;;4.45;2.58;;;;;;;27.51;36.22;94693.75;5026779;28;20399;-76
2021/07/11 08:43:47;;;;;;;3.72;2.70;;;;;;;27.88;37.13;94689.59;5023086;28;20030;-74
2021/07/11 08:46:12;;;;;;;6.15;3.53;;;;;;;27.05;38.72;94684.59;5025816;28;20109;-74
2021/07/11 08:48:40;;;;;;;6.60;3.00;;;;;;;27.70;38.24;94678.63;5024402;28;20049;-74
2021/07/11 08:51:05;;;;;;;3.17;2.50;;;;;;;28.28;38.80;94673.13;5027383;28;20498;-75
2021/07/11 08:53:32;;;;;;;6.88;3.40;;;;;;;27.56;39.71;94672.41;5025209;28;20033;-72
2021/07/11 08:56:01;;;;;;;7.18;3.20;;;;;;;27.35;39.92;94675.53;5017498;28;20034;-73
2021/07/11 08:58:27;;;;;;;4.35;3.80;;;;;;;27.25;40.42;94668.44;5006109;28;20570;-73
2021/07/11 09:00:53;;;;;;;4.35;3.40;;;;;;;27.68;38.99;94670.13;5007737;28;20030;-75
2021/07/11 09:03:18;;;;;;;3.15;2.80;;;;;;;27.94;36.36;94667.94;5005880;28;20053;-75
2021/07/11 09:05:44;;;;;;;4.07;2.75;;;;;;;28.17;38.93;94671.66;5023696;28;20034;-77
2021/07/11 09:08:15;;;;;;;4.07;3.25;;;;;;;28.14;38.72;94661.59;5026912;28;20048;-73
2021/07/11 09:10:42;;;;;;;4.10;2.88;;;;;;;27.71;38.01;94674.88;5024452;28;20033;-76
2021/07/11 09:13:12;;;;;;;3.50;3.13;;;;;;;28.50;39.06;94664.53;5027584;28;20030;-75
2021/07/11 09:15:38;;;;;;;4.72;3.88;;;;;;;26.94;39.77;94661.84;5026100;28;20410;-72
2021/07/11 09:18:03;;;;;;;7.05;4.25;;;;;;;27.05;40.95;94668.63;5027425;28;20029;-73
2021/07/11 09:20:29;;;;;;;4.90;4.40;;;;;;;27.49;39.70;94658.63;5026538;28;20033;-73
2021/07/11 09:23:02;;;;;;;5.47;3.20;;;;;;;28.49;39.55;94660.28;5030979;28;20057;-75
2021/07/11 09:25:27;;;;;;;3.80;3.40;;;;;;;29.29;40.30;94661.66;5031348;28;20496;-75
2021/07/11 09:27:53;;;;;;;4.15;3.30;;;;;;;28.53;39.99;94664.75;5015687;28;20108;-75
2021/07/11 09:30:18;;;;;;;8.73;3.63;;;;;;;28.15;37.27;94647.19;5038137;28;20113;-70
2021/07/11 09:32:44;;;;;;;6.13;2.97;;;;;;;28.33;38.35;94654.38;5030237;28;20022;-73
2021/07/11 09:35:16;;;;;;;4.70;3.38;;;;;;;29.09;38.19;94655.88;5028545;28;20025;-74
2021/07/11 09:37:47;;;;;;;3.63;3.00;;;;;;;27.93;38.79;94654.94;5021962;28;20553;-73
2021/07/11 09:40:16;;;;;;;5.63;3.33;;;;;;;27.31;38.28;94643.38;5030960;28;20370;-74
2021/07/11 09:42:42;;;;;;;3.67;3.38;;;;;;;28.94;38.32;94653.47;5033861;28;20482;-75
2021/07/11 09:45:34;;;;;;;5.55;3.00;;;;;;;28.83;36.15;94646.72;5029787;28;20669;-73
2021/07/11 09:48:12;;;;;;;2.83;2.63;;;;;;;28.39;36.95;94645.22;5038402;28;20128;-74
2021/07/11 09:50:38;;;;;;;6.93;3.33;;;;;;;28.74;37.85;94644.72;5037177;28;20040;-73
2021/07/11 09:53:06;;;;;;;4.22;3.17;;;;;;;28.68;37.14;94651.22;5026823;28;20439;-72
2021/07/11 09:55:33;;;;;;;3.30;3.00;;;;;;;28.85;37.34;94648.00;5026755;28;20111;-72
2021/07/11 09:57:59;;;;;;;5.38;3.13;;;;;;;28.22;38.72;94647.63;5030863;28;20505;-73
2021/07/11 10:00:31;;;;;;;5.35;3.65;;;;;;;28.97;37.07;94639.53;5030771;28;20184;-75
2021/07/11 10:02:58;;;;;;;15.63;4.70;;;;;;;28.70;35.70;94627.72;5022055;28;20609;-76
2021/07/11 10:05:24;;;;;;;5.32;3.33;;;;;;;28.32;36.47;94646.69;5032682;28;20043;-73
2021/07/11 10:07:49;;;;;;;5.22;3.85;;;;;;;28.55;38.03;94643.91;5034563;28;20029;-72
2021/07/11 10:10:17;;;;;;;4.13;3.20;;;;;;;28.63;38.65;94642.47;5025263;28;20038;-73
2021/07/11 10:12:43;;;;;;;4.57;3.58;;;;;;;28.97;37.99;94642.19;5020913;28;20029;-73
2021/07/11 10:15:12;;;;;;;6.72;3.35;;;;;;;28.71;39.04;94645.28;5029943;28;20025;-75
2021/07/11 10:17:51;;;;;;;3.33;3.03;;;;;;;28.42;35.44;94628.66;5031215;28;20035;-73
2021/07/11 10:20:19;;;;;;;4.00;3.60;;;;;;;29.15;38.96;94639.50;5027852;28;20494;-73
2021/07/11 10:22:50;;;;;;;3.80;3.50;;;;;;;28.56;37.75;94634.84;5020716;28;20029;-75
2021/07/11 10:25:20;;;;;;;7.60;3.80;;;;;;;28.23;35.61;94636.66;5016863;28;20021;-74
2021/07/11 10:27:47;;;;;;;4.20;3.38;;;;;;;28.21;37.27;94630.06;5009368;28;20431;-75
2021/07/11 10:30:13;;;;;;;4.57;3.65;;;;;;;28.73;36.48;94624.47;5010773;28;20408;-73
2021/07/11 10:32:39;;;;;;;5.30;4.25;;;;;;;28.13;38.89;94628.03;5008593;28;20056;-73
2021/07/11 10:35:09;;;;;;;5.18;3.70;;;;;;;28.95;38.20;94617.69;5010794;28;20026;-74
2021/07/11 10:37:51;;;;;;;7.38;3.72;;;;;;;29.29;38.12;94608.28;5013275;28;20037;-75
2021/07/11 10:40:31;;;;;;;4.35;3.95;;;;;;;29.27;38.55;94615.81;5038705;28;20068;-73
2021/07/11 10:42:57;;;;;;;4.38;3.75;;;;;;;28.94;38.24;94611.56;5048519;28;20102;-74
2021/07/11 10:45:23;;;;;;;4.25;3.95;;;;;;;28.34;35.62;94607.22;5048868;28;20466;-71
2021/07/11 10:47:49;;;;;;;5.18;4.15;;;;;;;28.17;35.36;94607.72;5049919;28;20056;-72
2021/07/11 10:50:28;;;;;;;3.78;3.47;;;;;;;29.34;36.95;94614.63;5047074;28;20108;-76
2021/07/11 10:52:55;;;;;;;4.53;4.13;;;;;;;29.57;37.42;94603.72;5049855;28;20025;-74
2021/07/11 10:55:21;;;;;;;4.43;3.83;;;;;;;29.40;36.60;94611.56;5047929;28;20141;-74
2021/07/11 10:57:46;;;;;;;4.65;3.53;;;;;;;29.47;37.37;94614.63;5027415;28;20047;-75
2021/07/11 11:00:16;;;;;;;4.50;4.20;;;;;;;29.32;34.48;94606.09;5030007;28;20449;-73
2021/07/11 11:02:43;;;;;;;6.05;4.00;;;;;;;29.17;36.03;94604.50;5031840;28;20049;-75
2021/07/11 11:05:40;;;;;;;5.88;3.60;;;;;;;29.44;36.12;94604.56;5034944;28;20112;-75
2021/07/11 11:08:09;;;;;;;5.07;3.17;;;;;;;30.19;37.62;94599.50;5019369;28;20029;-76
2021/07/11 11:10:36;;;;;;;3.95;3.60;;;;;;;29.60;38.05;94591.69;5027750;28;20033;-75
2021/07/11 11:13:06;;;;;;;5.22;4.18;;;;;;;29.40;36.33;94600.09;5016682;28;20044;-74
2021/07/11 11:15:56;;;;;;;3.78;3.47;;;;;;;29.43;36.74;94592.28;5033203;28;20034;-75
2021/07/11 11:18:23;;;;;;;4.47;3.83;;;;;;;29.05;36.70;94580.16;5028486;28;20025;-76
2021/07/11 11:21:04;;;;;;;4.25;3.85;;;;;;;29.35;37.18;94582.28;5040271;28;20064;-74
2021/07/11 11:23:39;;;;;;;4.45;3.70;;;;;;;28.81;36.58;94577.66;5017050;28;20025;-75
2021/07/11 11:26:06;;;;;;;4.57;4.05;;;;;;;29.45;37.04;94576.75;5016622;28;20484;-74
2021/07/11 11:28:39;;;;;;;3.40;3.20;;;;;;;29.89;36.03;94567.31;5024088;28;20030;-74
2021/07/11 11:31:07;;;;;;;5.20;3.83;;;;;;;29.82;36.63;94565.03;5017567;28;20024;-75
2021/07/11 11:33:52;;;;;;;7.87;4.03;;;;;;;29.35;36.37;94574.25;5028200;28;20029;-74
2021/07/11 11:36:31;;;;;;;5.78;3.97;;;;;;;29.49;36.41;94564.38;5025165;28;20820;-75
2021/07/11 11:39:03;;;;;;;4.50;4.05;;;;;;;29.75;37.25;94568.09;5026053;28;20083;-74
2021/07/11 11:41:29;;;;;;;4.57;4.18;;;;;;;29.59;36.67;94564.19;5019950;28;20029;-75
2021/07/11 11:44:08;;;;;;;4.00;3.60;;;;;;;29.37;36.29;94550.75;5025005;28;20033;-75
2021/07/11 11:46:33;;;;;;;;;;;;;;;29.74;37.49;94552.38;5026143;28;20080;-76
2021/07/11 11:49:07;;;;;;;5.03;4.53;;;;;;;29.09;36.43;94549.91;5030741;28;20627;-75
2021/07/11 11:51:33;;;;;;;3.67;3.42;;;;;;;29.96;37.18;94547.09;5033740;28;20021;-76
2021/07/11 11:53:59;;;;;;;8.52;3.90;;;;;;;30.39;36.88;94543.97;5009571;28;20072;-74
2021/07/11 11:56:24;;;;;;;4.15;3.72;;;;;;;29.86;37.58;94552.69;5022666;28;20111;-74
2021/07/11 11:59:00;;;;;;;4.43;4.00;;;;;;;29.59;37.15;94539.34;5026440;28;20522;-76
2021/07/11 12:01:29;;;;;;;5.82;4.50;;;;;;;30.19;37.49;94545.22;5008817;28;20592;-75
2021/07/11 12:03:54;;;;;;;;;;;;;;;29.61;37.26;94542.50;5029858;28;20035;-74
2021/07/11 12:06:22;;;;;;;11.23;4.83;;;;;;;29.86;37.04;94547.34;5031362;28;19913;-75
2021/07/11 12:08:47;;;;;;;6.50;4.03;;;;;;;29.79;36.01;94547.72;5025779;28;20288;-74
2021/07/11 12:11:13;;;;;;;4.32;4.00;;;;;;;29.69;35.99;94544.47;5032253;28;20090;-76
2021/07/11 12:13:39;;;;;;;7.50;4.15;;;;;;;29.57;35.74;94544.97;5035283;28;20395;-75
2021/07/11 12:16:09;;;;;;;4.13;3.70;;;;;;;29.66;36.00;94542.41;5031969;28;20104;-76
2021/07/11 12:18:48;;;;;;;5.70;4.07;;;;;;;30.16;36.25;94545.84;5008055;28;20053;-74
2021/07/11 12:21:23;;;;;;;4.18;3.88;;;;;;;29.71;35.58;94537.75;5020333;28;20052;-76
2021/07/11 12:24:02;;;;;;;5.47;4.40;;;;;;;29.56;33.76;94532.72;5021250;28;20041;-76
2021/07/11 12:26:28;;;;;;;3.90;3.60;;;;;;;29.61;35.35;94532.63;5029457;28;20033;-76
2021/07/11 12:28:54;;;;;;;4.38;3.58;;;;;;;29.78;34.71;94524.75;5023942;28;20030;-73
2021/07/11 12:31:28;;;;;;;4.20;3.83;;;;;;;29.83;35.13;94529.22;5026676;28;20079;-75
2021/07/11 12:34:16;;;;;;;4.57;4.18;;;;;;;29.94;35.78;94527.13;5024213;28;20048;-75
2021/07/11 12:36:53;;;;;;;5.45;3.92;;;;;;;29.85;34.67;94531.59;5020022;28;20026;-75
2021/07/11 12:39:23;;;;;;;4.72;4.30;;;;;;;29.39;35.00;94524.53;5020653;28;20049;-75
2021/07/11 12:41:48;;;;;;;4.00;3.72;;;;;;;29.90;35.26;94516.25;5025019;28;20434;-77
2021/07/11 12:44:16;;;;;;;5.47;3.70;;;;;;;29.86;34.74;94517.97;5026531;28;20033;-77
2021/07/11 12:46:42;;;;;;;4.07;3.72;;;;;;;30.10;35.38;94514.97;5020536;28;20506;-73
2021/07/11 12:49:08;;;;;;;4.65;4.28;;;;;;;30.00;34.88;94510.66;5026816;28;20029;-74
2021/07/11 12:51:55;;;;;;;16.52;5.28;;;;;;;29.86;35.47;94503.81;5025957;28;20037;-75
2021/07/11 12:54:24;;;;;;;5.57;4.07;;;;;;;30.05;35.82;94507.09;5025234;28;20029;-75
2021/07/11 12:56:52;;;;;;;3.75;3.40;;;;;;;30.35;34.12;94501.00;5018525;28;20403;-74
2021/07/11 12:59:29;;;;;;;5.55;3.88;;;;;;;29.95;33.86;94502.78;5012434;28;20029;-74
2021/07/11 13:02:08;;;;;;;7.07;3.65;;;;;;;29.90;34.37;94486.84;5035413;28;20489;-75
2021/07/11 13:04:35;;;;;;;4.05;3.70;;;;;;;30.86;34.01;94489.03;5035831;28;20112;-75
2021/07/11 13:07:02;;;;;;;3.58;3.35;;;;;;;29.94;30.84;94489.72;5041560;28;20111;-75
2021/07/11 13:09:28;;;;;;;3.17;2.97;;;;;;;29.52;31.69;94481.00;5022348;28;20499;-76
2021/07/11 13:11:53;;;;;;;3.65;3.35;;;;;;;30.08;32.20;94472.53;5027400;28;20079;-79
2021/07/11 13:14:19;;;;;;;4.25;3.47;;;;;;;29.87;33.70;94474.09;5026370;28;20041;-75
2021/07/11 13:16:44;;;;;;;4.00;3.70;;;;;;;30.09;34.34;94468.75;5018843;28;20494;-76
2021/07/11 13:19:09;;;;;;;4.47;3.67;;;;;;;30.44;34.23;94471.69;5007851;28;20038;-74
2021/07/11 13:21:35;;;;;;;6.30;4.25;;;;;;;30.31;32.88;94467.97;5015159;28;20037;-78
2021/07/11 13:24:00;;;;;;;4.07;3.67;;;;;;;30.61;32.81;94472.53;5027218;28;20029;-76
2021/07/11 13:26:26;;;;;;;4.28;3.33;;;;;;;30.19;32.73;94470.38;5008475;28;20521;-75
2021/07/11 13:28:51;;;;;;;4.97;3.58;;;;;;;30.69;34.17;94460.31;5043191;28;20117;-76
2021/07/11 13:31:22;;;;;;;5.20;3.63;;;;;;;29.58;33.91;94466.44;5035422;28;20037;-74
2021/07/11 13:33:47;;;;;;;3.80;3.50;;;;;;;30.16;33.75;94466.44;5025581;28;20108;-74
2021/07/11 13:36:13;;;;;;;4.65;4.28;;;;;;;30.11;34.10;94466.59;5027303;28;20029;-74
2021/07/11 13:38:38;;;;;;;3.97;3.63;;;;;;;30.10;35.10;94458.84;5025651;28;20025;-75
2021/07/11 13:41:04;;;;;;;4.28;3.97;;;;;;;29.66;33.79;94455.06;5028976;28;20506;-76
2021/07/11 13:43:31;;;;;;;5.25;3.67;;;;;;;30.12;34.47;94464.69;5029567;28;20380;-74
2021/07/11 13:45:56;;;;;;;9.57;3.88;;;;;;;30.28;33.67;94460.53;5025374;28;20030;-76
2021/07/11 13:48:22;;;;;;;4.03;3.72;;;;;;;29.89;33.29;94463.91;5025916;28;20094;-75
2021/07/11 13:50:47;;;;;;;4.60;3.72;;;;;;;29.77;33.35;94461.75;5025925;28;20413;-74
2021/07/11 13:53:13;;;;;;;3.70;3.40;;;;;;;29.40;32.54;94462.06;5027160;28;20438;-75
2021/07/11 13:55:38;;;;;;;6.97;3.30;;;;;;;30.60;33.52;94448.78;5029819;28;20021;-76
2021/07/11 13:58:06;;;;;;;3.92;3.50;;;;;;;30.50;31.63;94455.19;5030285;28;20026;-76
2021/07/11 14:00:31;;;;;;;4.10;3.33;;;;;;;30.12;30.86;94445.97;5027291;28;20435;-76
2021/07/11 14:02:56;;;;;;;3.60;3.30;;;;;;;30.30;32.16;94442.31;5009526;28;20080;-73
2021/07/11 14:05:22;;;;;;;4.03;3.38;;;;;;;30.36;31.94;94443.75;5040767;28;20041;-75
2021/07/11 14:07:47;;;;;;;3.08;2.88;;;;;;;30.48;31.92;94445.88;5038438;28;20029;-73
2021/07/11 14:10:13;;;;;;;13.18;4.32;;;;;;;29.79;32.03;94446.22;5050113;28;20037;-71
2021/07/11 14:12:39;;;;;;;6.70;3.50;;;;;;;29.84;32.94;94441.84;5049505;28;20583;-72
2021/07/11 14:15:05;;;;;;;3.65;3.35;;;;;;;29.90;32.89;94440.63;5050698;28;20014;-73
2021/07/11 14:17:31;;;;;;;3.30;3.08;;;;;;;30.08;31.87;94443.16;5035293;28;20415;-74
2021/07/11 14:19:58;;;;;;;3.80;3.42;;;;;;;30.03;31.59;94434.44;5030159;28;20029;-73
2021/07/11 14:22:23;;;;;;;3.42;3.22;;;;;;;30.07;32.50;94433.53;4995610;28;20115;-75
2021/07/11 14:24:49;;;;;;;3.22;3.03;;;;;;;30.05;32.58;94432.28;4968826;28;20323;-74
2021/07/11 14:27:19;;;;;;;5.03;3.95;;;;;;;30.18;31.92;94432.16;4976938;28;20018;-74
2021/07/11 14:29:44;;;;;;;13.27;3.97;;;;;;;30.21;31.12;94431.56;4993863;28;20087;-73
2021/07/11 14:32:10;;;;;;;4.25;3.53;;;;;;;29.93;31.07;94434.69;5011632;28;20022;-74
2021/07/11 14:34:35;;;;;;;3.50;3.08;;;;;;;30.08;32.67;94431.66;5027743;28;20021;-74
2021/07/11 14:37:00;;;;;;;3.28;2.97;;;;;;;29.98;32.20;94437.25;5030112;28;20103;-73
2021/07/11 14:39:26;;;;;;;5.35;3.45;;;;;;;30.20;32.81;94430.00;5027351;28;20059;-72
2021/07/11 14:41:51;;;;;;;4.13;2.97;;;;;;;29.91;30.81;94432.34;5031557;28;20017;-74
2021/07/11 14:44:17;;;;;;;4.85;3.70;;;;;;;29.81;32.03;94424.53;5038364;28;20116;-72
2021/07/11 14:46:43;;;;;;;4.55;3.97;;;;;;;29.68;32.75;94418.16;5029872;28;20029;-73
2021/07/11 14:49:09;;;;;;;3.88;3.25;;;;;;;29.92;31.87;94425.13;5028150;28;20442;-75
2021/07/11 14:51:34;;;;;;;3.22;3.00;;;;;;;29.81;32.63;94422.66;5034085;28;20026;-73
2021/07/11 14:54:00;;;;;;;3.47;3.17;;;;;;;29.86;33.16;94427.13;5039850;28;20025;-72
2021/07/11 14:56:26;;;;;;;4.20;3.90;;;;;;;30.06;33.39;94423.13;5032735;28;20045;-75
2021/07/11 14:58:52;;;;;;;7.10;4.10;;;;;;;30.12;31.91;94421.91;5037030;28;20099;-73
2021/07/11 15:01:17;;;;;;;6.38;3.58;;;;;;;30.10;33.30;94413.44;5035410;28;20056;-74
2021/07/11 15:03:43;;;;;;;3.28;3.08;;;;;;;30.11;34.04;94409.66;5038562;28;20079;-74
2021/07/11 15:06:08;;;;;;;3.78;3.38;;;;;;;30.14;33.78;94420.53;5030880;28;20522;-74
2021/07/11 15:08:34;;;;;;;12.40;4.30;;;;;;;29.84;33.22;94417.81;5033580;28;20036;-75
2021/07/11 15:10:59;;;;;;;3.80;3.42;;;;;;;29.79;33.22;94414.16;5033991;28;20418;-74
2021/07/11 15:13:25;;;;;;;5.18;3.60;;;;;;;29.57;31.83;94416.81;5022770;28;20060;-74
2021/07/11 15:15:51;;;;;;;3.70;3.42;;;;;;;29.83;32.54;94410.91;5028844;28;20114;-74
2021/07/11 15:18:16;;;;;;;14.20;3.78;;;;;;;29.79;32.33;94408.03;5031635;28;20541;-75
2021/07/11 15:20:44;;;;;;;4.65;3.10;;;;;;;29.77;32.35;94408.31;5030007;28;20034;-73
2021/07/11 15:23:09;;;;;;;3.35;3.15;;;;;;;29.71;32.64;94401.53;5034163;28;20067;-73
2021/07/11 15:25:35;;;;;;;4.10;3.53;;;;;;;29.61;34.00;94403.63;5033616;28;20197;-75
2021/07/11 15:28:01;;;;;;;4.00;3.53;;;;;;;29.78;34.22;94406.44;5040828;28;20147;-75
2021/07/11 15:30:26;;;;;;;3.88;3.58;;;;;;;29.68;34.16;94406.69;5037237;28;20455;-72
2021/07/11 15:32:51;;;;;;;3.80;3.50;;;;;;;29.58;35.15;94407.69;5030228;28;20033;-74
2021/07/11 15:35:17;;;;;;;5.97;3.80;;;;;;;29.77;35.15;94408.31;5020181;28;20030;-75
2021/07/11 15:37:43;;;;;;;8.73;3.80;;;;;;;29.57;34.52;94405.34;5018951;28;20423;-75
2021/07/11 15:40:11;;;;;;;8.02;3.85;;;;;;;29.63;35.42;94404.94;5027092;28;20033;-74
2021/07/11 15:42:38;;;;;;;6.85;3.90;;;;;;;29.52;36.29;94406.25;5033704;28;20041;-73
2021/07/11 15:45:04;;;;;;;3.97;3.65;;;;;;;29.41;35.28;94404.13;5032564;28;20027;-74
2021/07/11 15:47:30;;;;;;;4.70;3.90;;;;;;;29.49;36.74;94406.06;5036991;28;20029;-75
2021/07/11 15:49:55;;;;;;;4.70;3.80;;;;;;;29.55;36.32;94400.31;5030444;28;20029;-74
2021/07/11 15:52:21;;;;;;;3.35;3.15;;;;;;;29.33;36.89;94412.84;5028220;28;20026;-75
2021/07/11 15:54:46;;;;;;;3.97;3.67;;;;;;;29.28;36.38;94414.53;5022939;28;20778;-73
2021/07/11 15:57:12;;;;;;;4.53;3.80;;;;;;;29.31;37.17;94412.34;5022987;28;20034;-74
2021/07/11 15:59:37;;;;;;;5.95;4.00;;;;;;;28.95;42.12;94414.97;5035517;28;20101;-73
2021/07/11 16:02:04;;;;;;;7.50;4.70;;;;;;;28.74;44.25;94409.25;5019531;28;20061;-74
2021/07/11 16:04:29;;;;;;;4.85;3.95;;;;;;;28.74;44.63;94410.03;5024722;28;20025;-75
2021/07/11 16:06:55;;;;;;;5.97;4.40;;;;;;;28.67;45.51;94411.53;5020113;28;20075;-75
2021/07/11 16:09:20;;;;;;;6.22;4.80;;;;;;;28.56;46.63;94413.56;5033198;28;20022;-73
2021/07/11 16:11:46;;;;;;;4.50;4.10;;;;;;;28.37;45.74;94417.41;5029241;28;20376;-72
2021/07/11 16:14:11;;;;;;;5.63;5.13;;;;;;;28.27;47.34;94419.16;5031626;28;20473;-74
2021/07/11 16:16:37;;;;;;;5.53;4.70;;;;;;;28.13;47.61;94425.53;5025615;28;20104;-73
2021/07/11 16:19:02;;;;;;;5.32;4.70;;;;;;;28.11;47.23;94419.72;5030857;28;20021;-73
2021/07/11 16:21:28;;;;;;;5.43;4.47;;;;;;;27.91;46.75;94420.03;5025250;28;20040;-73
2021/07/11 16:23:53;;;;;;;4.80;4.40;;;;;;;27.94;46.98;94422.09;5023690;28;20029;-73
2021/07/11 16:26:19;;;;;;;5.32;4.82;;;;;;;27.92;46.80;94426.94;5003733;28;20025;-73
2021/07/11 16:28:44;;;;;;;5.20;4.13;;;;;;;27.81;47.78;94428.19;5005925;28;20038;-74
2021/07/11 16:31:10;;;;;;;7.97;4.72;;;;;;;27.84;48.46;94432.97;5039788;28;20418;-73
2021/07/11 16:33:35;;;;;;;4.75;4.35;;;;;;;27.72;49.29;94442.16;5045449;28;20029;-74
2021/07/11 16:36:00;;;;;;;5.20;4.25;;;;;;;27.67;48.45;94444.13;5025077;28;20037;-73